createdAt,value
2018-04-29T00:00:44.527Z,101199.27
2018-04-29T00:03:10.677Z,101193.11
2018-04-29T00:05:44.425Z,101195.80
2018-04-29T00:08:10.561Z,101190.55
2018-04-29T00:10:36.723Z,101187.48
2018-04-29T00:13:02.903Z,101187.06
2018-04-29T00:15:29.052Z,101184.03
2018-04-29T00:17:55.228Z,101187.09
2018-04-29T00:20:21.366Z,101182.28
2018-04-29T00:22:47.541Z,101188.43
2018-04-29T00:25:13.712Z,101188.42
2018-04-29T00:27:40.305Z,101181.87
2018-04-29T00:30:06.454Z,101178.78
2018-04-29T00:32:32.600Z,101174.47
2018-04-29T00:34:58.876Z,101170.97
2018-04-29T00:37:25.065Z,101174.05
2018-04-29T00:39:51.236Z,101179.76
2018-04-29T00:42:17.420Z,101174.97
2018-04-29T00:44:43.635Z,101181.53
2018-04-29T00:47:09.964Z,101179.79
2018-04-29T00:49:36.096Z,101177.16
2018-04-29T00:52:06.110Z,101175.87
2018-04-29T00:54:32.678Z,101180.66
2018-04-29T00:56:58.821Z,101185.05
2018-04-29T00:59:24.974Z,101185.90
2018-04-29T01:01:51.205Z,101181.97
2018-04-29T01:04:17.691Z,101184.18
2018-04-29T01:06:44.119Z,101181.56
2018-04-29T01:09:10.298Z,101180.71
2018-04-29T01:11:36.599Z,101187.75
2018-04-29T01:14:02.751Z,101190.83
2018-04-29T01:16:28.893Z,101191.68
2018-04-29T01:18:55.101Z,101193.02
2018-04-29T01:21:21.593Z,101194.33
2018-04-29T01:23:47.733Z,101197.83
2018-04-29T01:26:13.908Z,101199.16
2018-04-29T01:28:40.053Z,101193.50
2018-04-29T01:31:06.341Z,101193.48
2018-04-29T01:33:32.475Z,101199.57
2018-04-29T01:35:58.619Z,101196.56
2018-04-29T01:38:24.790Z,101190.03
2018-04-29T01:40:50.970Z,101190.05
2018-04-29T01:43:17.187Z,101185.70
2018-04-29T01:45:43.378Z,101187.86
2018-04-29T01:48:09.569Z,101187.86
2018-04-29T01:50:35.702Z,101184.83
2018-04-29T01:53:01.990Z,101183.53
2018-04-29T01:55:28.141Z,101188.38
2018-04-29T01:57:54.285Z,101187.94
2018-04-29T02:00:20.873Z,101190.15
2018-04-29T02:02:47.019Z,101195.84
2018-04-29T02:05:13.169Z,101196.29
2018-04-29T02:07:39.621Z,101198.47
2018-04-29T02:10:05.768Z,101202.38
2018-04-29T02:12:31.919Z,101193.64
2018-04-29T02:14:58.085Z,101200.63
2018-04-29T02:17:24.244Z,101200.22
2018-04-29T02:19:50.521Z,101190.63
2018-04-29T02:22:16.991Z,101191.94
2018-04-29T02:24:43.125Z,101193.66
2018-04-29T02:27:09.551Z,101190.67
2018-04-29T02:29:35.705Z,101192.42
2018-04-29T02:32:02.012Z,101197.23
2018-04-29T02:34:28.264Z,101195.02
2018-04-29T02:36:54.669Z,101192.81
2018-04-29T02:39:20.834Z,101178.83
2018-04-29T02:41:46.978Z,101188.44
2018-04-29T02:44:13.259Z,101200.24
2018-04-29T02:46:39.411Z,101194.97
2018-04-29T02:49:05.910Z,101195.41
2018-04-29T02:51:32.114Z,101190.16
2018-04-29T02:53:58.266Z,101190.61
2018-04-29T02:56:24.417Z,101192.81
2018-04-29T02:58:50.589Z,101193.25
2018-04-29T03:01:16.725Z,101188.44
2018-04-29T03:03:43.322Z,101193.25
2018-04-29T03:06:09.491Z,101188.08
2018-04-29T03:08:35.661Z,101179.31
2018-04-29T03:11:01.827Z,101178.88
2018-04-29T03:13:28.113Z,101182.78
2018-04-29T03:15:54.253Z,101185.84
2018-04-29T03:18:20.650Z,101192.34
2018-04-29T03:20:46.939Z,101193.72
2018-04-29T03:23:13.093Z,101194.58
2018-04-29T03:25:39.244Z,101184.55
2018-04-29T03:28:05.463Z,101185.86
2018-04-29T03:30:31.606Z,101183.27
2018-04-29T03:32:57.749Z,101176.66
2018-04-29T03:35:23.922Z,101178.41
2018-04-29T03:37:50.066Z,101181.50
2018-04-29T03:40:16.352Z,101183.70
2018-04-29T03:42:42.511Z,101183.70
2018-04-29T03:45:08.662Z,101187.25
2018-04-29T03:47:34.954Z,101183.72
2018-04-29T03:50:01.409Z,101188.56
2018-04-29T03:52:27.557Z,101186.37
2018-04-29T03:54:54.111Z,101181.59
2018-04-29T04:00:34.386Z,101185.52
2018-04-29T04:03:12.796Z,101185.11
2018-04-29T04:05:38.929Z,101188.16
2018-04-29T04:08:05.119Z,101178.97
2018-04-29T04:10:31.269Z,101176.34
2018-04-29T04:12:57.434Z,101185.09
2018-04-29T04:15:23.907Z,101187.70
2018-04-29T04:17:50.120Z,101178.99
2018-04-29T04:20:16.256Z,101180.73
2018-04-29T04:22:42.407Z,101171.61
2018-04-29T04:25:08.661Z,101172.45
2018-04-29T04:27:34.800Z,101172.44
2018-04-29T04:30:01.062Z,101175.06
2018-04-29T04:32:34.976Z,101179.84
2018-04-29T04:35:01.120Z,101183.77
2018-04-29T04:37:27.532Z,101186.85
2018-04-29T04:39:53.727Z,101200.40
2018-04-29T04:42:19.861Z,101199.97
2018-04-29T04:44:46.024Z,101209.12
2018-04-29T04:47:12.192Z,101211.27
2018-04-29T04:49:38.359Z,101209.07
2018-04-29T04:52:04.654Z,101205.58
2018-04-29T04:54:30.805Z,101202.94
2018-04-29T04:56:56.952Z,101200.72
2018-04-29T04:59:23.127Z,101205.06
2018-04-29T05:01:49.265Z,101204.66
2018-04-29T05:04:15.735Z,101205.06
2018-04-29T05:06:41.884Z,101203.74
2018-04-29T05:09:08.048Z,101198.02
2018-04-29T05:11:34.233Z,101200.20
2018-04-29T05:14:00.462Z,101209.79
2018-04-29T05:16:26.629Z,101214.14
2018-04-29T05:18:52.832Z,101218.05
2018-04-29T05:21:18.970Z,101207.98
2018-04-29T05:23:45.157Z,101201.42
2018-04-29T05:26:11.294Z,101213.17
2018-04-29T05:28:37.506Z,101206.98
2018-04-29T05:31:03.697Z,101189.48
2018-04-29T05:33:29.904Z,101192.05
2018-04-29T05:35:56.048Z,101193.75
2018-04-29T05:38:22.523Z,101205.12
2018-04-29T05:40:48.696Z,101216.05
2018-04-29T05:43:14.833Z,101217.33
2018-04-29T05:45:41.049Z,101218.65
2018-04-29T05:48:07.538Z,101222.09
2018-04-29T05:50:33.714Z,101222.98
2018-04-29T05:53:00.450Z,101225.16
2018-04-29T05:55:26.633Z,101232.95
2018-04-29T05:57:52.778Z,101241.19
2018-04-29T06:00:18.953Z,101243.80
2018-04-29T06:02:45.560Z,101245.95
2018-04-29T06:05:11.701Z,101250.75
2018-04-29T06:07:37.841Z,101250.28
2018-04-29T06:10:04.046Z,101252.44
2018-04-29T06:12:30.218Z,101260.73
2018-04-29T06:14:56.362Z,101250.63
2018-04-29T06:17:22.890Z,101241.90
2018-04-29T06:19:49.046Z,101237.58
2018-04-29T06:22:15.181Z,101243.23
2018-04-29T06:24:41.349Z,101233.59
2018-04-29T06:27:07.481Z,101232.33
2018-04-29T06:29:34.166Z,101241.95
2018-04-29T06:32:00.313Z,101241.92
2018-04-29T06:34:26.795Z,101247.97
2018-04-29T06:36:53.227Z,101254.00
2018-04-29T06:39:19.412Z,101249.17
2018-04-29T06:41:45.560Z,101251.30
2018-04-29T06:44:11.729Z,101256.94
2018-04-29T06:46:37.873Z,101265.72
2018-04-29T06:49:04.823Z,101263.55
2018-04-29T06:51:30.981Z,101267.03
2018-04-29T06:53:57.129Z,101265.71
2018-04-29T06:56:23.426Z,101267.52
2018-04-29T06:58:49.572Z,101274.52
2018-04-29T07:01:15.717Z,101274.54
2018-04-29T07:03:41.992Z,101270.60
2018-04-29T07:06:08.137Z,101271.89
2018-04-29T07:08:34.287Z,101264.36
2018-04-29T07:11:00.488Z,101264.27
2018-04-29T07:13:26.633Z,101265.94
2018-04-29T07:15:52.768Z,101264.98
2018-04-29T07:18:18.958Z,101273.25
2018-04-29T07:20:45.458Z,101282.00
2018-04-29T07:23:11.638Z,101279.44
2018-04-29T07:25:37.786Z,101285.55
2018-04-29T07:28:04.001Z,101283.83
2018-04-29T07:30:30.156Z,101283.39
2018-04-29T07:32:56.314Z,101278.09
2018-04-29T07:35:22.665Z,101272.33
2018-04-29T07:37:48.808Z,101259.56
2018-04-29T07:40:14.957Z,101265.19
2018-04-29T07:42:41.129Z,101253.38
2018-04-29T07:45:07.301Z,101246.84
2018-04-29T07:47:33.985Z,101242.11
2018-04-29T07:50:00.132Z,101230.34
2018-04-29T07:52:26.329Z,101219.45
2018-04-29T07:54:52.566Z,101208.98
2018-04-29T07:57:18.723Z,101208.55
2018-04-29T07:59:44.899Z,101218.14
2018-04-29T08:02:11.056Z,101217.21
2018-04-29T08:04:37.231Z,101229.00
2018-04-29T08:07:03.412Z,101226.36
2018-04-29T08:09:29.601Z,101228.08
2018-04-29T08:11:55.749Z,101234.17
2018-04-29T08:14:21.897Z,101230.70
2018-04-29T08:16:48.127Z,101230.68
2018-04-29T08:19:14.254Z,101228.91
2018-04-29T08:21:40.389Z,101230.68
2018-04-29T08:24:06.596Z,101238.12
2018-04-29T08:26:32.744Z,101237.22
2018-04-29T08:28:58.889Z,101231.50
2018-04-29T08:31:25.065Z,101237.11
2018-04-29T08:33:52.180Z,101245.84
2018-04-29T08:36:18.334Z,101235.33
2018-04-29T08:38:44.484Z,101232.65
2018-04-29T08:41:10.786Z,101237.44
2018-04-29T08:43:36.923Z,101241.33
2018-04-29T08:46:03.075Z,101245.23
2018-04-29T08:48:29.835Z,101249.12
2018-04-29T08:50:55.980Z,101261.35
2018-04-29T08:53:22.153Z,101262.64
2018-04-29T08:55:48.647Z,101254.30
2018-04-29T08:58:15.077Z,101252.95
2018-04-29T09:00:41.274Z,101261.67
2018-04-29T09:03:07.413Z,101254.62
2018-04-29T09:05:33.969Z,101256.34
2018-04-29T09:08:00.152Z,101258.95
2018-04-29T09:10:26.333Z,101242.28
2018-04-29T09:12:52.858Z,101248.34
2018-04-29T09:15:19.019Z,101247.89
2018-04-29T09:17:45.518Z,101243.92
2018-04-29T09:20:11.676Z,101244.33
2018-04-29T09:22:38.283Z,101239.54
2018-04-29T09:25:04.713Z,101245.20
2018-04-29T09:27:30.859Z,101244.27
2018-04-29T09:29:57.030Z,101242.44
2018-04-29T09:32:23.185Z,101243.25
2018-04-29T09:34:49.469Z,101236.59
2018-04-29T09:37:15.672Z,101234.78
2018-04-29T09:39:41.838Z,101231.69
2018-04-29T09:42:08.133Z,101233.84
2018-04-29T09:44:34.385Z,101233.84
2018-04-29T09:47:00.617Z,101229.87
2018-04-29T09:49:26.809Z,101232.04
2018-04-29T09:51:53.029Z,101219.34
2018-04-29T09:54:19.200Z,101216.27
2018-04-29T09:56:45.344Z,101212.70
2018-04-29T09:59:12.212Z,101208.73
2018-04-29T10:01:38.398Z,101215.69
2018-04-29T10:04:04.548Z,101216.09
2018-04-29T10:06:30.740Z,101219.13
2018-04-29T10:08:56.920Z,101210.83
2018-04-29T10:11:23.247Z,101213.75
2018-04-29T10:13:49.394Z,101213.19
2018-04-29T10:16:15.541Z,101211.78
2018-04-29T10:18:41.834Z,101205.64
2018-04-29T10:21:08.022Z,101204.86
2018-04-29T10:23:34.183Z,101195.56
2018-04-29T10:26:00.348Z,101201.60
2018-04-29T10:28:26.499Z,101197.06
2018-04-29T10:30:52.669Z,101188.56
2018-04-29T10:33:18.850Z,101184.02
2018-04-29T10:35:45.016Z,101180.45
2018-04-29T10:38:11.862Z,101189.52
2018-04-29T10:40:38.012Z,101191.67
2018-04-29T10:43:04.193Z,101192.52
2018-04-29T10:45:30.363Z,101192.38
2018-04-29T10:47:56.517Z,101189.95
2018-04-29T10:50:22.760Z,101192.81
2018-04-29T10:52:49.373Z,101177.36
2018-04-29T10:55:15.562Z,101173.01
2018-04-29T10:57:41.697Z,101167.88
2018-04-29T11:00:07.932Z,101166.64
2018-04-29T11:02:34.117Z,101168.42
2018-04-29T11:05:00.297Z,101163.61
2018-04-29T11:07:26.576Z,101164.95
2018-04-29T11:09:52.829Z,101159.19
2018-04-29T11:12:19.204Z,101152.97
2018-04-29T11:14:45.588Z,101152.56
2018-04-29T11:17:11.722Z,101147.38
2018-04-29T11:19:37.874Z,101143.94
2018-04-29T11:22:04.152Z,101143.94
2018-04-29T11:24:30.196Z,101148.84
2018-04-29T11:26:56.394Z,101152.52
2018-04-29T11:29:22.561Z,101144.70
2018-04-29T11:31:48.991Z,101141.22
2018-04-29T11:34:15.158Z,101139.06
2018-04-29T11:36:41.360Z,101143.99
2018-04-29T11:39:07.543Z,101143.39
2018-04-29T11:41:33.694Z,101138.33
2018-04-29T11:43:59.835Z,101133.64
2018-04-29T11:46:26.113Z,101141.13
2018-04-29T11:48:52.604Z,101139.00
2018-04-29T11:51:18.745Z,101144.77
2018-04-29T11:53:44.912Z,101136.09
2018-04-29T11:56:11.050Z,101123.46
2018-04-29T11:58:37.325Z,101122.65
2018-04-29T12:01:03.566Z,101111.29
2018-04-29T12:03:29.717Z,101119.17
2018-04-29T12:05:55.893Z,101112.13
2018-04-29T12:08:22.231Z,101109.94
2018-04-29T12:10:48.511Z,101100.74
2018-04-29T12:13:14.697Z,101088.07
2018-04-29T12:15:41.193Z,101086.83
2018-04-29T12:18:07.370Z,101088.23
2018-04-29T12:20:33.512Z,101091.27
2018-04-29T12:22:59.686Z,101076.41
2018-04-29T12:25:25.837Z,101072.47
2018-04-29T12:27:52.028Z,101068.16
2018-04-29T12:30:18.176Z,101077.42
2018-04-29T12:32:44.364Z,101074.82
2018-04-29T12:35:10.517Z,101063.84
2018-04-29T12:37:36.665Z,101055.95
2018-04-29T12:40:02.849Z,101056.90
2018-04-29T12:42:28.997Z,101062.22
2018-04-29T12:44:55.277Z,101057.84
2018-04-29T12:47:21.425Z,101046.38
2018-04-29T12:49:47.581Z,101047.23
2018-04-29T12:52:13.807Z,101042.84
2018-04-29T12:54:40.229Z,101043.76
2018-04-29T12:57:06.661Z,101045.58
2018-04-29T12:59:32.849Z,101049.65
2018-04-29T13:01:59.028Z,101056.31
2018-04-29T13:04:25.190Z,101051.97
2018-04-29T13:06:51.369Z,101046.28
2018-04-29T13:09:17.537Z,101046.75
2018-04-29T13:11:43.885Z,101046.84
2018-04-29T13:14:10.033Z,101043.34
2018-04-29T13:16:36.197Z,101037.66
2018-04-29T13:19:02.384Z,101041.97
2018-04-29T13:21:28.578Z,101035.36
2018-04-29T13:23:55.073Z,101040.15
2018-04-29T13:26:21.229Z,101031.83
2018-04-29T13:28:47.388Z,101022.20
2018-04-29T13:31:13.578Z,101016.53
2018-04-29T13:33:39.765Z,101010.37
2018-04-29T13:36:06.620Z,101007.20
2018-04-29T13:38:32.770Z,101007.41
2018-04-29T13:40:58.934Z,100992.93
2018-04-29T13:43:25.107Z,100987.20
2018-04-29T13:45:51.259Z,100986.25
2018-04-29T13:48:17.793Z,100976.28
2018-04-29T13:50:44.192Z,100971.91
2018-04-29T13:53:10.375Z,100969.34
2018-04-29T13:55:36.552Z,100964.64
2018-04-29T13:58:02.712Z,100967.41
2018-04-29T14:00:29.012Z,100970.19
2018-04-29T14:02:55.167Z,100952.73
2018-04-29T14:05:21.323Z,100950.51
2018-04-29T14:07:47.796Z,100950.11
2018-04-29T14:10:14.039Z,100950.91
2018-04-29T14:12:40.967Z,100947.30
2018-04-29T14:15:07.114Z,100940.66
2018-04-29T14:17:33.266Z,100942.52
2018-04-29T14:19:59.969Z,100947.00
2018-04-29T14:22:26.070Z,100946.20
2018-04-29T14:24:52.221Z,100948.86
2018-04-29T14:27:18.398Z,100952.77
2018-04-29T14:29:44.869Z,100951.83
2018-04-29T14:32:11.063Z,100946.78
2018-04-29T14:34:37.208Z,100933.42
2018-04-29T14:37:03.423Z,100932.91
2018-04-29T14:39:29.591Z,100927.74
2018-04-29T14:41:55.736Z,100924.80
2018-04-29T14:44:22.649Z,100921.58
2018-04-29T14:46:48.793Z,100919.63
2018-04-29T14:49:14.936Z,100919.22
2018-04-29T14:51:41.105Z,100915.70
2018-04-29T14:54:07.280Z,100907.95
2018-04-29T14:56:33.457Z,100904.95
2018-04-29T14:58:59.609Z,100894.55
2018-04-29T15:01:25.795Z,100891.59
2018-04-29T15:03:51.962Z,100897.30
2018-04-29T15:06:18.249Z,100886.61
2018-04-29T15:08:44.720Z,100887.55
2018-04-29T15:11:10.866Z,100876.05
2018-04-29T15:13:37.058Z,100871.72
2018-04-29T15:16:03.231Z,100867.37
2018-04-29T15:18:41.761Z,100863.67
2018-04-29T15:21:07.911Z,100854.16
2018-04-29T15:23:34.078Z,100851.34
2018-04-29T15:26:00.214Z,100843.97
2018-04-29T15:28:26.775Z,100844.89
2018-04-29T15:30:52.909Z,100847.73
2018-04-29T15:33:19.298Z,100851.82
2018-04-29T15:35:45.581Z,100857.49
2018-04-29T15:38:11.730Z,100853.02
2018-04-29T15:40:37.947Z,100849.95
2018-04-29T15:43:04.249Z,100849.73
2018-04-29T15:45:30.485Z,100850.34
2018-04-29T15:47:56.633Z,100854.46
2018-04-29T15:50:22.943Z,100851.20
2018-04-29T15:52:49.088Z,100852.25
2018-04-29T15:55:15.232Z,100857.64
2018-04-29T15:57:41.677Z,100854.45
2018-04-29T16:00:07.878Z,100853.49
2018-04-29T16:02:34.010Z,100851.13
2018-04-29T16:05:00.570Z,100846.52
2018-04-29T16:07:26.714Z,100845.98
2018-04-29T16:09:52.856Z,100835.44
2018-04-29T16:12:19.129Z,100831.75
2018-04-29T16:14:45.291Z,100831.47
2018-04-29T16:17:11.454Z,100832.91
2018-04-29T16:19:37.626Z,100837.77
2018-04-29T16:22:04.301Z,100834.66
2018-04-29T16:24:30.802Z,100829.31
2018-04-29T16:26:56.975Z,100834.10
2018-04-29T16:29:23.143Z,100832.74
2018-04-29T16:31:49.586Z,100837.88
2018-04-29T16:34:16.224Z,100836.92
2018-04-29T16:36:42.428Z,100832.77
2018-04-29T16:39:08.890Z,100820.05
2018-04-29T16:41:35.077Z,100818.47
2018-04-29T16:44:01.227Z,100812.45
2018-04-29T16:46:27.674Z,100812.99
2018-04-29T16:48:53.849Z,100814.20
2018-04-29T16:51:19.997Z,100803.13
2018-04-29T16:53:46.184Z,100797.20
2018-04-29T16:56:12.320Z,100782.92
2018-04-29T16:58:38.484Z,100779.33
2018-04-29T17:01:04.935Z,100779.95
2018-04-29T17:03:31.582Z,100776.02
2018-04-29T17:05:57.718Z,100770.91
2018-04-29T17:08:23.864Z,100776.80
2018-04-29T17:10:50.297Z,100781.05
2018-04-29T17:13:16.430Z,100777.28
2018-04-29T17:15:42.597Z,100773.78
2018-04-29T17:18:08.750Z,100769.97
2018-04-29T17:20:34.900Z,100770.73
2018-04-29T17:23:01.028Z,100765.88
2018-04-29T17:25:27.211Z,100761.07
2018-04-29T17:27:53.354Z,100748.27
2018-04-29T17:30:19.521Z,100746.80
2018-04-29T17:32:45.665Z,100750.04
2018-04-29T17:35:11.951Z,100759.81
2018-04-29T17:37:38.097Z,100744.95
2018-04-29T17:40:04.241Z,100742.41
2018-04-29T17:42:30.433Z,100731.53
2018-04-29T17:44:56.572Z,100721.02
2018-04-29T17:47:22.780Z,100719.34
2018-04-29T17:49:49.198Z,100722.46
2018-04-29T17:52:15.338Z,100726.94
2018-04-29T17:54:41.517Z,100721.80
2018-04-29T17:57:07.685Z,100725.08
2018-04-29T17:59:34.109Z,100722.63
2018-04-29T18:02:00.273Z,100725.82
2018-04-29T18:04:26.912Z,100732.08
2018-04-29T18:06:53.061Z,100723.88
2018-04-29T18:09:19.533Z,100731.94
2018-04-29T18:11:46.068Z,100734.69
2018-04-29T18:14:12.262Z,100731.31
2018-04-29T18:16:38.456Z,100725.78
2018-04-29T18:19:04.632Z,100727.65
2018-04-29T18:21:30.818Z,100724.27
2018-04-29T18:23:56.978Z,100728.30
2018-04-29T18:26:23.173Z,100731.92
2018-04-29T18:28:49.321Z,100734.63
2018-04-29T18:31:15.608Z,100729.06
2018-04-29T18:33:41.759Z,100722.21
2018-04-29T18:36:07.965Z,100729.77
2018-04-29T18:38:34.133Z,100730.33
2018-04-29T18:41:00.277Z,100739.59
2018-04-29T18:43:26.444Z,100737.45
2018-04-29T18:45:52.593Z,100736.65
2018-04-29T18:48:18.890Z,100733.26
2018-04-29T18:50:45.223Z,100738.16
2018-04-29T18:53:11.211Z,100740.89
2018-04-29T18:55:37.906Z,100738.82
2018-04-29T18:58:04.405Z,100738.41
2018-04-29T19:00:30.940Z,100740.17
2018-04-29T19:02:57.248Z,100738.94
2018-04-29T19:05:35.748Z,100735.50
2018-04-29T19:08:01.933Z,100729.45
2018-04-29T19:10:28.090Z,100725.55
2018-04-29T19:12:54.323Z,100723.84
2018-04-29T19:15:20.480Z,100725.23
2018-04-29T19:17:46.616Z,100725.27
2018-04-29T19:20:13.058Z,100726.17
2018-04-29T19:22:39.213Z,100728.84
2018-04-29T19:25:05.848Z,100732.37
2018-04-29T19:27:32.007Z,100727.20
2018-04-29T19:29:58.472Z,100733.76
2018-04-29T19:32:24.672Z,100723.73
2018-04-29T19:34:50.812Z,100718.48
2018-04-29T19:37:17.407Z,100718.12
2018-04-29T19:39:43.550Z,100720.34
2018-04-29T19:42:09.705Z,100709.08
2018-04-29T19:44:35.870Z,100701.57
2018-04-29T19:47:02.018Z,100702.05
2018-04-29T19:49:28.222Z,100700.33
2018-04-29T19:51:54.375Z,100698.58
2018-04-29T19:54:20.554Z,100691.19
2018-04-29T19:56:46.735Z,100688.16
2018-04-29T19:59:12.885Z,100682.98
2018-04-29T20:01:39.571Z,100673.77
2018-04-29T20:04:05.977Z,100674.23
2018-04-29T20:06:32.125Z,100668.55
2018-04-29T20:08:58.298Z,100656.78
2018-04-29T20:11:24.462Z,100660.75
2018-04-29T20:13:50.892Z,100657.30
2018-04-29T20:16:17.322Z,100657.77
2018-04-29T20:18:43.463Z,100653.39
2018-04-29T20:21:09.604Z,100654.70
2018-04-29T20:23:35.793Z,100649.89
2018-04-29T20:26:02.078Z,100649.02
2018-04-29T20:28:28.224Z,100648.62
2018-04-29T20:30:54.381Z,100648.22
2018-04-29T20:33:20.896Z,100650.44
2018-04-29T20:35:47.034Z,100642.13
2018-04-29T20:38:13.187Z,100633.86
2018-04-29T20:40:39.441Z,100631.27
2018-04-29T20:43:05.633Z,100620.78
2018-04-29T20:45:32.060Z,100620.37
2018-04-29T20:47:58.265Z,100612.51
2018-04-29T20:50:24.423Z,100610.76
2018-04-29T20:52:50.564Z,100608.17
2018-04-29T20:55:16.743Z,100602.05
2018-04-29T20:57:42.941Z,100592.03
2018-04-29T21:00:09.124Z,100587.69
2018-04-29T21:02:35.559Z,100590.75
2018-04-29T21:05:01.729Z,100593.81
2018-04-29T21:07:27.934Z,100588.13
2018-04-29T21:09:54.098Z,100582.05
2018-04-29T21:12:20.283Z,100577.23
2018-04-29T21:14:46.457Z,100568.09
2018-04-29T21:17:13.032Z,100569.84
2018-04-29T21:19:39.140Z,100569.41
2018-04-29T21:22:05.308Z,100568.53
2018-04-29T21:24:31.448Z,100565.94
2018-04-29T21:26:58.042Z,100551.12
2018-04-29T21:29:24.186Z,100547.19
2018-04-29T21:31:50.334Z,100533.63
2018-04-29T21:34:16.637Z,100533.63
2018-04-29T21:36:42.792Z,100531.88
2018-04-29T21:39:08.946Z,100527.55
2018-04-29T21:41:35.537Z,100521.47
2018-04-29T21:44:01.765Z,100515.31
2018-04-29T21:46:27.904Z,100513.59
2018-04-29T21:48:54.078Z,100507.95
2018-04-29T21:51:20.221Z,100501.87
2018-04-29T21:53:46.410Z,100504.06
2018-04-29T21:56:12.594Z,100494.44
2018-04-29T21:58:38.736Z,100491.85
2018-04-29T22:01:05.237Z,100488.39
2018-04-29T22:03:31.674Z,100479.22
2018-04-29T22:05:57.869Z,100474.84
2018-04-29T22:08:24.153Z,100470.91
2018-04-29T22:10:50.297Z,100469.59
2018-04-29T22:13:16.440Z,100461.30
2018-04-29T22:15:42.638Z,100456.52
2018-04-29T22:18:08.787Z,100454.81
2018-04-29T22:20:34.975Z,100455.69
2018-04-29T22:23:01.119Z,100448.26
2018-04-29T22:25:27.269Z,100447.42
2018-04-29T22:27:53.441Z,100447.42
2018-04-29T22:30:19.589Z,100440.43
2018-04-29T22:32:46.141Z,100445.23
2018-04-29T22:35:12.283Z,100439.98
2018-04-29T22:37:38.761Z,100438.69
2018-04-29T22:40:04.959Z,100436.53
2018-04-29T22:42:31.524Z,100449.64
2018-04-29T22:44:57.679Z,100448.38
2018-04-29T22:47:23.822Z,100447.06
2018-04-29T22:49:49.999Z,100455.77
2018-04-29T22:52:16.162Z,100454.89
2018-04-29T22:54:42.331Z,100450.52
2018-04-29T22:57:08.484Z,100444.84
2018-04-29T22:59:34.631Z,100454.45
2018-04-29T23:02:00.913Z,100453.22
2018-04-29T23:04:27.070Z,100452.31
2018-04-29T23:06:53.213Z,100448.81
2018-04-29T23:09:19.464Z,100444.44
2018-04-29T23:11:45.750Z,100448.77
2018-04-29T23:14:12.055Z,100449.21
2018-04-29T23:16:38.213Z,100450.52
2018-04-29T23:19:04.827Z,100436.14
2018-04-29T23:21:30.973Z,100430.89
2018-04-29T23:23:57.119Z,100427.84
2018-04-29T23:26:23.769Z,100420.00
2018-04-29T23:28:49.941Z,100425.25
2018-04-29T23:31:16.098Z,100410.83
2018-04-29T23:33:42.310Z,100415.20
2018-04-29T23:36:08.464Z,100413.02
2018-04-29T23:38:34.978Z,100411.66
2018-04-29T23:41:01.514Z,100407.77
2018-04-29T23:43:27.670Z,100404.70
2018-04-29T23:45:53.816Z,100398.59
2018-04-29T23:48:19.999Z,100386.39
2018-04-29T23:50:46.161Z,100390.77
2018-04-29T23:53:12.351Z,100383.77
2018-04-29T23:55:38.494Z,100376.34
2018-04-29T23:58:04.668Z,100371.97
